Time;durP1;ratioP1;P1;durP2;ratioP2;P2;SDS_P1;SDS_P2;PMS_P1;PMS_P2;Temp;Humidity;BMP_temperature;BMP_pressure;BME280_temperature;BME280_humidity;BME280_pressure;Samples;Min_cycle;Max_cycle;Signal;HPM_P1;HPM_P2
2023/09/03 00:05:50;;;;;;;11.07;7.50;;;;;;;;;;5075446;28;20153;-73
2023/09/03 00:08:17;;;;;;;10.97;6.97;;;;;;;;;;5041119;28;20589;-74
2023/09/03 00:10:47;;;;;;;8.77;6.87;;;;;;;;;;5058170;28;20214;-73
2023/09/03 00:13:14;;;;;;;11.37;7.13;;;;;;;;;;5040975;28;20190;-73
2023/09/03 00:15:40;;;;;;;9.70;7.03;;;;;;;;;;5057817;28;20181;-73
2023/09/03 00:18:08;;;;;;;11.53;7.20;;;;;;;;;;5074221;28;20265;-73
2023/09/03 00:20:38;;;;;;;13.00;7.67;;;;;;;;;;5041434;28;20217;-73
2023/09/03 00:27:22;;;;;;;12.23;6.53;;;;;;;;;;5075033;28;20565;-73
2023/09/03 00:30:06;;;;;;;9.50;6.27;;;;;;;;;;5058562;28;20179;-73
2023/09/03 00:32:33;;;;;;;9.63;6.17;;;;;;;;;;5029069;28;20237;-73
2023/09/03 00:35:00;;;;;;;7.23;5.70;;;;;;;;;;5037560;28;20498;-73
2023/09/03 00:37:27;;;;;;;8.27;6.00;;;;;;;;;;5038428;28;20563;-73
2023/09/03 00:39:54;;;;;;;13.10;6.13;;;;;;;;;;5037313;28;20194;-73
2023/09/03 00:42:20;;;;;;;8.67;6.20;;;;;;;;;;5037265;28;20203;-74
2023/09/03 00:44:47;;;;;;;8.00;5.77;;;;;;;;;;5053818;28;20564;-73
2023/09/03 00:47:14;;;;;;;8.37;5.17;;;;;;;;;;5037152;28;20748;-74
2023/09/03 00:49:42;;;;;;;8.53;5.80;;;;;;;;;;5036997;28;20202;-74
2023/09/03 00:52:09;;;;;;;10.93;6.40;;;;;;;;;;5020375;28;20229;-73
2023/09/03 00:54:35;;;;;;;7.60;5.87;;;;;;;;;;5037227;28;20592;-73
2023/09/03 00:57:03;;;;;;;8.77;6.10;;;;;;;;;;5037381;28;20209;-74
2023/09/03 01:03:29;;;;;;;8.77;6.80;;;;;;;;;;5054305;28;20157;-73
2023/09/03 01:09:54;;;;;;;9.30;6.07;;;;;;;;;;5054240;28;20242;-73
2023/09/03 01:47:49;;;;;;;11.63;7.27;;;;;;;;;;5053643;28;20294;-73
2023/09/03 01:50:24;;;;;;;13.47;7.90;;;;;;;;;;5023363;28;20277;-73
2023/09/03 01:52:51;;;;;;;11.57;7.30;;;;;;;;;;5036042;28;20226;-73
2023/09/03 01:55:18;;;;;;;10.80;7.47;;;;;;;;;;5053787;28;20187;-74
2023/09/03 01:57:49;;;;;;;13.80;7.00;;;;;;;;;;5036036;28;20545;-73
2023/09/03 02:00:33;;;;;;;9.60;6.70;;;;;;;;;;5035925;28;20182;-73
2023/09/03 02:03:01;;;;;;;11.60;6.90;;;;;;;;;;5035269;28;20529;-73
2023/09/03 02:05:45;;;;;;;8.67;5.57;;;;;;;;;;5022353;28;20163;-73
2023/09/03 02:08:12;;;;;;;8.07;5.87;;;;;;;;;;5036162;28;20253;-73
2023/09/03 02:10:55;;;;;;;8.97;5.97;;;;;;;;;;5038420;28;20653;-73
2023/09/03 02:13:23;;;;;;;8.10;5.60;;;;;;;;;;5036523;28;20194;-73
2023/09/03 02:15:50;;;;;;;9.17;5.40;;;;;;;;;;5053850;28;20236;-72
2023/09/03 02:18:16;;;;;;;12.87;6.47;;;;;;;;;;5035867;28;20198;-73
2023/09/03 02:20:44;;;;;;;8.10;5.00;;;;;;;;;;5035897;28;20273;-73
2023/09/03 02:23:11;;;;;;;8.90;5.03;;;;;;;;;;5035722;28;20572;-73
2023/09/03 02:25:38;;;;;;;6.57;4.67;;;;;;;;;;5035773;28;20269;-73
2023/09/03 02:28:07;;;;;;;9.13;5.50;;;;;;;;;;5020084;28;20211;-73
2023/09/03 02:34:26;;;;;;;9.00;6.20;;;;;;;;;;5053241;28;20201;-73
2023/09/03 02:36:53;;;;;;;11.07;6.13;;;;;;;;;;5052144;28;20194;-73
2023/09/03 02:39:21;;;;;;;8.70;4.87;;;;;;;;;;5035383;28;20281;-73
2023/09/03 02:41:47;;;;;;;7.37;5.33;;;;;;;;;;5035766;28;20179;-72
2023/09/03 02:44:32;;;;;;;8.73;5.03;;;;;;;;;;5038256;28;20179;-73
2023/09/03 02:46:58;;;;;;;8.40;4.87;;;;;;;;;;5034972;28;20249;-72
2023/09/03 02:49:25;;;;;;;7.40;4.23;;;;;;;;;;5052964;28;20570;-73
2023/09/03 02:51:52;;;;;;;5.63;4.37;;;;;;;;;;5036144;28;20606;-72
2023/09/03 02:54:19;;;;;;;6.20;4.27;;;;;;;;;;5035269;28;20191;-72
2023/09/03 03:01:10;;;;;;;5.07;4.10;;;;;;;;;;5049056;28;20711;-72
2023/09/03 03:07:30;;;;;;;7.87;4.27;;;;;;;;;;5052878;28;20194;-72
2023/09/03 03:10:15;;;;;;;6.57;5.13;;;;;;;;;;5037920;28;20200;-72
2023/09/03 03:12:44;;;;;;;9.43;4.63;;;;;;;;;;5035639;28;20201;-72
2023/09/03 03:15:28;;;;;;;5.70;4.33;;;;;;;;;;5042492;28;20255;-73
2023/09/03 03:17:56;;;;;;;8.10;5.07;;;;;;;;;;5023149;28;20671;-73
2023/09/03 03:24:22;;;;;;;6.57;4.87;;;;;;;;;;5056373;28;20188;-73
2023/09/03 03:27:08;;;;;;;7.40;4.10;;;;;;;;;;5041384;28;20224;-72
2023/09/03 03:29:34;;;;;;;6.63;4.70;;;;;;;;;;5022976;28;20190;-72
2023/09/03 03:32:01;;;;;;;6.67;4.80;;;;;;;;;;5006044;28;20213;-73
2023/09/03 03:34:28;;;;;;;8.30;5.03;;;;;;;;;;5022887;28;20193;-73
2023/09/03 03:36:57;;;;;;;7.27;4.83;;;;;;;;;;5022359;28;20201;-72
2023/09/03 03:43:18;;;;;;;5.70;4.63;;;;;;;;;;5055966;28;20205;-72
2023/09/03 03:45:46;;;;;;;8.07;5.13;;;;;;;;;;5021942;28;20319;-73
2023/09/03 03:48:13;;;;;;;6.33;4.47;;;;;;;;;;5022094;28;20264;-73
2023/09/03 03:50:42;;;;;;;4.97;4.20;;;;;;;;;;5052208;28;20290;-72
2023/09/03 03:53:12;;;;;;;6.60;4.10;;;;;;;;;;5006800;28;20272;-72
2023/09/03 03:59:40;;;;;;;5.30;4.30;;;;;;;;;;5056466;28;20220;-73
2023/09/03 04:02:08;;;;;;;8.67;4.37;;;;;;;;;;5006122;28;20590;-73
2023/09/03 04:04:35;;;;;;;5.53;4.10;;;;;;;;;;5054934;28;20216;-73
2023/09/03 04:07:02;;;;;;;6.60;4.50;;;;;;;;;;5005689;28;20234;-73
2023/09/03 04:09:29;;;;;;;4.97;4.33;;;;;;;;;;5022191;28;20198;-73
2023/09/03 04:11:56;;;;;;;5.57;4.50;;;;;;;;;;5022737;28;20571;-73
2023/09/03 04:14:23;;;;;;;6.10;4.87;;;;;;;;;;5039170;28;20228;-73
2023/09/03 04:16:52;;;;;;;7.97;5.53;;;;;;;;;;5022516;28;20195;-73
2023/09/03 04:19:36;;;;;;;7.93;5.20;;;;;;;;;;5025709;28;20162;-72
2023/09/03 04:22:04;;;;;;;40.80;6.90;;;;;;;;;;5039100;28;20194;-72
2023/09/03 04:24:36;;;;;;;7.60;5.93;;;;;;;;;;5046671;28;20186;-73
2023/09/03 04:31:08;;;;;;;7.77;5.70;;;;;;;;;;5056097;28;20667;-73
2023/09/03 04:37:37;;;;;;;5.70;5.00;;;;;;;;;;5055655;28;20201;-73
2023/09/03 04:40:04;;;;;;;8.80;5.50;;;;;;;;;;5021812;28;20245;-73
2023/09/03 04:42:32;;;;;;;9.00;5.00;;;;;;;;;;5037774;28;20618;-73
2023/09/03 04:48:59;;;;;;;6.83;4.60;;;;;;;;;;5055415;28;20204;-73
2023/09/03 04:51:27;;;;;;;6.63;5.20;;;;;;;;;;5020936;28;20195;-73
2023/09/03 04:53:54;;;;;;;10.33;5.23;;;;;;;;;;5037994;28;20216;-73
2023/09/03 04:56:21;;;;;;;7.90;5.43;;;;;;;;;;5037511;28;20191;-73
2023/09/03 04:58:48;;;;;;;6.87;5.67;;;;;;;;;;5004086;28;20190;-72
2023/09/03 05:05:09;;;;;;;6.63;5.30;;;;;;;;;;5054862;28;20675;-73
2023/09/03 05:11:42;;;;;;;6.97;5.03;;;;;;;;;;5054452;28;20221;-71
2023/09/03 05:14:09;;;;;;;7.03;4.90;;;;;;;;;;5037270;28;20277;-71
2023/09/03 05:16:37;;;;;;;7.83;5.37;;;;;;;;;;5021239;28;20277;-71
2023/09/03 05:19:04;;;;;;;8.30;5.47;;;;;;;;;;5004563;28;20227;-70
2023/09/03 05:21:33;;;;;;;8.33;5.30;;;;;;;;;;5036586;28;20195;-69
2023/09/03 05:27:59;;;;;;;8.57;5.83;;;;;;;;;;5053938;28;20533;-68
2023/09/03 05:30:27;;;;;;;6.53;5.17;;;;;;;;;;5036389;28;20187;-67
2023/09/03 05:32:57;;;;;;;6.27;4.90;;;;;;;;;;5052190;28;20197;-68
2023/09/03 05:35:26;;;;;;;6.60;5.07;;;;;;;;;;5036279;28;20253;-70
2023/09/03 05:41:52;;;;;;;7.07;4.80;;;;;;;;;;5053825;28;20154;-69
2023/09/03 05:44:19;;;;;;;8.90;4.70;;;;;;;;;;5054695;28;20210;-70
2023/09/03 05:51:05;;;;;;;6.83;4.40;;;;;;;;;;5053699;28;20153;-71
2023/09/03 05:53:37;;;;;;;7.27;4.70;;;;;;;;;;5069244;28;20217;-71
2023/09/03 05:56:09;;;;;;;6.83;4.77;;;;;;;;;;5036317;28;20201;-71
2023/09/03 05:58:37;;;;;;;8.43;4.50;;;;;;;;;;5004094;28;20199;-71
2023/09/03 06:01:08;;;;;;;5.40;4.13;;;;;;;;;;5052632;28;20190;-71
2023/09/03 06:03:35;;;;;;;7.73;4.43;;;;;;;;;;5036645;28;20221;-71
2023/09/03 06:06:06;;;;;;;8.20;4.83;;;;;;;;;;5069051;28;20252;-71
2023/09/03 06:08:33;;;;;;;7.27;4.40;;;;;;;;;;5003294;28;20329;-71
2023/09/03 06:11:00;;;;;;;6.67;3.90;;;;;;;;;;5053170;28;20264;-70
2023/09/03 06:13:28;;;;;;;6.93;3.67;;;;;;;;;;5036055;28;20186;-71
2023/09/03 06:15:55;;;;;;;6.63;3.90;;;;;;;;;;5036564;28;20190;-71
2023/09/03 06:18:22;;;;;;;6.27;4.10;;;;;;;;;;5019461;28;20202;-72
2023/09/03 06:20:50;;;;;;;8.03;3.83;;;;;;;;;;5035613;28;20714;-71
2023/09/03 06:23:20;;;;;;;7.93;4.07;;;;;;;;;;5052184;28;20704;-71
2023/09/03 06:25:48;;;;;;;7.90;4.10;;;;;;;;;;5053441;28;20187;-71
2023/09/03 06:28:33;;;;;;;7.30;4.57;;;;;;;;;;5021807;28;20209;-71
2023/09/03 06:31:01;;;;;;;6.63;3.47;;;;;;;;;;5052838;28;20265;-71
2023/09/03 06:33:32;;;;;;;5.07;3.50;;;;;;;;;;5053717;28;20198;-71
2023/09/03 06:35:59;;;;;;;8.67;3.93;;;;;;;;;;5052408;28;20187;-71
2023/09/03 06:38:26;;;;;;;5.57;3.77;;;;;;;;;;5068745;28;20214;-71
2023/09/03 06:40:54;;;;;;;5.90;3.63;;;;;;;;;;5035588;28;20665;-71
2023/09/03 06:43:21;;;;;;;6.30;3.73;;;;;;;;;;5036022;28;20194;-71
2023/09/03 06:45:48;;;;;;;7.53;3.80;;;;;;;;;;5053141;28;20252;-71
2023/09/03 06:48:16;;;;;;;8.17;4.27;;;;;;;;;;5037458;28;20195;-71
2023/09/03 06:50:45;;;;;;;6.13;3.83;;;;;;;;;;5039786;28;20199;-71
2023/09/03 06:53:12;;;;;;;6.30;3.90;;;;;;;;;;5022859;28;20227;-71
2023/09/03 06:55:42;;;;;;;7.93;3.80;;;;;;;;;;5003376;28;20223;-71
2023/09/03 06:58:09;;;;;;;7.17;3.93;;;;;;;;;;5003423;28;20203;-71
2023/09/03 07:00:36;;;;;;;7.93;4.07;;;;;;;;;;5037744;28;20187;-71
2023/09/03 07:03:22;;;;;;;8.57;4.30;;;;;;;;;;5005353;28;20202;-71
2023/09/03 07:09:49;;;;;;;6.23;3.60;;;;;;;;;;5036696;28;20549;-71
2023/09/03 07:12:17;;;;;;;6.13;3.57;;;;;;;;;;5002799;28;20225;-71
2023/09/03 07:14:44;;;;;;;5.93;3.50;;;;;;;;;;5036551;28;20333;-71
2023/09/03 07:17:11;;;;;;;7.13;3.60;;;;;;;;;;5002639;28;20635;-72
2023/09/03 07:19:38;;;;;;;7.20;3.80;;;;;;;;;;5018806;28;20207;-69
2023/09/03 07:22:05;;;;;;;6.73;3.20;;;;;;;;;;5019096;28;20230;-70
2023/09/03 07:24:31;;;;;;;4.70;2.90;;;;;;;;;;5036304;28;20253;-70
2023/09/03 07:26:58;;;;;;;7.17;3.33;;;;;;;;;;5036590;28;20179;-71
2023/09/03 07:29:26;;;;;;;5.87;3.40;;;;;;;;;;5036181;28;20199;-70
2023/09/03 07:31:53;;;;;;;4.73;2.73;;;;;;;;;;5018588;28;20507;-71
2023/09/03 07:34:20;;;;;;;5.10;3.20;;;;;;;;;;5035653;28;20199;-71
2023/09/03 07:36:48;;;;;;;6.17;2.87;;;;;;;;;;5018852;28;20266;-72
2023/09/03 07:39:15;;;;;;;4.67;2.50;;;;;;;;;;5019484;28;20278;-72
2023/09/03 07:41:44;;;;;;;4.90;2.57;;;;;;;;;;5003476;28;20656;-72
2023/09/03 07:44:28;;;;;;;5.10;2.73;;;;;;;;;;5022956;28;20156;-74
2023/09/03 07:46:57;;;;;;;4.47;2.73;;;;;;;;;;5019531;28;20180;-73
2023/09/03 07:49:28;;;;;;;5.47;2.70;;;;;;;;;;5019659;28;20231;-73
2023/09/03 07:51:57;;;;;;;4.97;2.67;;;;;;;;;;5006667;28;20231;-73
2023/09/03 07:54:24;;;;;;;4.37;2.80;;;;;;;;;;5053519;28;20270;-72
2023/09/03 07:56:55;;;;;;;6.10;2.60;;;;;;;;;;5052457;28;20269;-75
2023/09/03 07:59:25;;;;;;;5.43;2.97;;;;;;;;;;5034827;28;20261;-74
2023/09/03 08:01:53;;;;;;;4.40;2.60;;;;;;;;;;5052952;28;20190;-74
2023/09/03 08:04:24;;;;;;;4.13;2.70;;;;;;;;;;5019871;28;20209;-74
2023/09/03 08:06:56;;;;;;;6.73;2.97;;;;;;;;;;5037500;28;20603;-73
2023/09/03 08:09:24;;;;;;;3.37;2.20;;;;;;;;;;5019209;28;20203;-73
2023/09/03 08:11:52;;;;;;;7.07;2.43;;;;;;;;;;5019416;28;20231;-74
2023/09/03 08:14:21;;;;;;;5.03;2.43;;;;;;;;;;5018153;28;20191;-71
2023/09/03 08:16:49;;;;;;;4.00;2.53;;;;;;;;;;5034625;28;20195;-71
2023/09/03 08:19:24;;;;;;;5.53;2.63;;;;;;;;;;5033169;28;20191;-71
2023/09/03 08:21:53;;;;;;;3.73;2.40;;;;;;;;;;5050689;28;20259;-72
2023/09/03 08:24:20;;;;;;;3.73;2.40;;;;;;;;;;5018582;28;20199;-74
2023/09/03 08:26:50;;;;;;;3.57;2.27;;;;;;;;;;5036726;28;20187;-73
2023/09/03 08:29:20;;;;;;;5.80;2.87;;;;;;;;;;5018408;28;20203;-69
2023/09/03 08:31:48;;;;;;;4.50;2.17;;;;;;;;;;5018186;28;20226;-72
2023/09/03 08:34:18;;;;;;;4.03;2.27;;;;;;;;;;5018669;28;20257;-71
2023/09/03 08:36:47;;;;;;;4.43;2.20;;;;;;;;;;5035673;28;20179;-71
2023/09/03 08:39:20;;;;;;;4.00;1.90;;;;;;;;;;5034491;28;20615;-71
2023/09/03 08:41:52;;;;;;;2.90;1.77;;;;;;;;;;5018457;28;20237;-71
2023/09/03 08:44:25;;;;;;;3.73;1.73;;;;;;;;;;5033614;28;20187;-71
2023/09/03 08:50:49;;;;;;;4.67;2.10;;;;;;;;;;5035518;28;20237;-73
2023/09/03 08:53:17;;;;;;;3.87;1.80;;;;;;;;;;5018332;28;20242;-72
2023/09/03 08:59:48;;;;;;;3.80;1.80;;;;;;;;;;5035057;28;20194;-73
2023/09/03 09:02:19;;;;;;;4.20;1.70;;;;;;;;;;5002528;28;20211;-72
2023/09/03 09:08:41;;;;;;;3.63;1.80;;;;;;;;;;5035019;28;20274;-72
2023/09/03 09:15:03;;;;;;;2.30;1.67;;;;;;;;;;5034870;28;20537;-73
2023/09/03 09:17:40;;;;;;;2.50;1.67;;;;;;;;;;5017175;28;20692;-73
2023/09/03 09:20:08;;;;;;;2.87;1.40;;;;;;;;;;5017741;28;20164;-74
2023/09/03 09:22:46;;;;;;;3.53;1.47;;;;;;;;;;5034561;28;20201;-71
2023/09/03 09:33:07;;;;;;;2.37;1.70;;;;;;;;;;5055357;28;20490;-72
2023/09/03 09:39:47;;;;;;;5.03;1.60;;;;;;;;;;5054459;28;20200;-76
2023/09/03 09:46:26;;;;;;;3.23;1.60;;;;;;;;;;5055012;28;20177;-74
2023/09/03 09:49:00;;;;;;;2.37;1.30;;;;;;;;;;5038880;28;20382;-77
2023/09/03 09:59:39;;;;;;;2.27;1.20;;;;;;;;;;5074051;28;20153;-73
2023/09/03 10:06:08;;;;;;;3.23;1.47;;;;;;;;;;5074783;28;20604;-73
2023/09/03 10:08:36;;;;;;;10.97;2.90;;;;;;;;;;5057542;28;20238;-72
2023/09/03 10:15:02;;;;;;;4.77;1.57;;;;;;;;;;5072113;28;20168;-71
2023/09/03 10:17:29;;;;;;;2.23;1.37;;;;;;;;;;5073690;28;20209;-72
2023/09/03 10:19:59;;;;;;;2.93;1.37;;;;;;;;;;5073905;28;20181;-72
2023/09/03 10:22:26;;;;;;;3.80;2.03;;;;;;;;;;5056864;28;20193;-72
2023/09/03 10:24:57;;;;;;;3.70;1.40;;;;;;;;;;5078030;28;20186;-72
2023/09/03 10:31:19;;;;;;;1.40;1.23;;;;;;;;;;5077845;28;20224;-72
2023/09/03 10:33:46;;;;;;;2.63;1.43;;;;;;;;;;5043773;28;20185;-72
2023/09/03 10:36:13;;;;;;;2.37;1.10;;;;;;;;;;5060277;28;20643;-72
2023/09/03 10:42:40;;;;;;;4.70;1.23;;;;;;;;;;5077686;28;20195;-74
2023/09/03 10:45:11;;;;;;;2.27;1.27;;;;;;;;;;5060866;28;20180;-74
2023/09/03 10:47:57;;;;;;;3.93;1.40;;;;;;;;;;5046960;28;20184;-71
2023/09/03 10:50:40;;;;;;;2.20;1.33;;;;;;;;;;5060335;28;20185;-75
2023/09/03 11:01:22;;;;;;;1.90;1.10;;;;;;;;;;5078522;28;20265;-78
2023/09/03 11:03:50;;;;;;;2.33;1.40;;;;;;;;;;5045488;28;20209;-80
2023/09/03 11:06:21;;;;;;;2.87;1.43;;;;;;;;;;5043336;28;20231;-72
2023/09/03 11:12:47;;;;;;;5.00;1.90;;;;;;;;;;5077445;28;20182;-82
2023/09/03 11:15:14;;;;;;;4.63;1.97;;;;;;;;;;5058819;28;20275;-70
2023/09/03 11:17:42;;;;;;;5.87;1.90;;;;;;;;;;5058683;28;20219;-75
2023/09/03 11:24:18;;;;;;;5.33;2.47;;;;;;;;;;5076335;28;20164;-71
2023/09/03 11:26:45;;;;;;;3.70;1.60;;;;;;;;;;5043362;28;20179;-74
2023/09/03 11:33:08;;;;;;;2.10;1.30;;;;;;;;;;5076336;28;20619;-77
2023/09/03 11:35:42;;;;;;;4.40;1.60;;;;;;;;;;5057844;28;20193;-75
2023/09/03 11:42:03;;;;;;;1.80;1.10;;;;;;;;;;5076436;28;20177;-76
2023/09/03 11:48:29;;;;;;;4.80;1.60;;;;;;;;;;5076088;28;20552;-76
2023/09/03 11:50:57;;;;;;;1.93;1.37;;;;;;;;;;5058358;28;20265;-76
2023/09/03 11:53:24;;;;;;;4.27;1.50;;;;;;;;;;5059379;28;20191;-77
2023/09/03 11:55:55;;;;;;;4.03;1.40;;;;;;;;;;5058191;28;20225;-78
2023/09/03 11:58:22;;;;;;;3.43;1.60;;;;;;;;;;5058691;28;20213;-76
2023/09/03 12:00:49;;;;;;;2.50;1.40;;;;;;;;;;5058993;28;20490;-76
2023/09/03 12:03:16;;;;;;;3.23;1.40;;;;;;;;;;5042460;28;20192;-76
2023/09/03 12:05:43;;;;;;;3.70;1.60;;;;;;;;;;5042436;28;20210;-76
2023/09/03 12:08:10;;;;;;;3.60;1.80;;;;;;;;;;5058116;28;20186;-78
2023/09/03 12:10:37;;;;;;;4.77;2.33;;;;;;;;;;5058173;28;20213;-76
2023/09/03 12:13:08;;;;;;;5.20;2.40;;;;;;;;;;5042236;28;20281;-78
2023/09/03 12:15:35;;;;;;;2.83;1.43;;;;;;;;;;5075740;28;20221;-77
2023/09/03 12:18:10;;;;;;;6.90;1.90;;;;;;;;;;5041376;28;20665;-79
2023/09/03 12:20:54;;;;;;;3.77;1.63;;;;;;;;;;5044820;28;20202;-77
2023/09/03 12:27:20;;;;;;;3.80;1.53;;;;;;;;;;5076673;28;20168;-75
2023/09/03 12:29:47;;;;;;;2.50;1.50;;;;;;;;;;5058614;28;20199;-79
2023/09/03 12:32:35;;;;;;;1.87;1.20;;;;;;;;;;5047949;28;20154;-76
2023/09/03 12:39:11;;;;;;;4.47;1.47;;;;;;;;;;5077241;28;20231;-74
2023/09/03 12:41:41;;;;;;;3.20;1.67;;;;;;;;;;5043831;28;20173;-76
2023/09/03 12:44:11;;;;;;;2.80;1.50;;;;;;;;;;5059412;28;20192;-75
2023/09/03 12:50:38;;;;;;;4.27;1.90;;;;;;;;;;5076735;28;20153;-74
2023/09/03 12:57:05;;;;;;;4.87;1.60;;;;;;;;;;5078920;28;20615;-80
2023/09/03 13:03:35;;;;;;;4.60;1.50;;;;;;;;;;5077321;28;20141;-81
2023/09/03 13:06:04;;;;;;;3.67;1.33;;;;;;;;;;5059630;28;20186;-81
2023/09/03 13:08:49;;;;;;;3.67;1.37;;;;;;;;;;5077287;28;20521;-79
2023/09/03 13:11:20;;;;;;;5.00;1.70;;;;;;;;;;5059281;28;20210;-80
2023/09/03 13:13:49;;;;;;;2.93;1.50;;;;;;;;;;5043219;28;20186;-81
2023/09/03 13:16:18;;;;;;;2.40;1.40;;;;;;;;;;5059262;28;20228;-80
2023/09/03 13:18:48;;;;;;;4.40;1.57;;;;;;;;;;5058644;28;20245;-76
2023/09/03 13:21:35;;;;;;;2.10;1.40;;;;;;;;;;5030472;28;20528;-74
2023/09/03 13:24:03;;;;;;;3.27;1.37;;;;;;;;;;5042963;28;20658;-78
2023/09/03 13:26:31;;;;;;;3.83;1.60;;;;;;;;;;5077199;28;20272;-81
2023/09/03 13:28:58;;;;;;;4.27;1.60;;;;;;;;;;5057700;28;20252;-79
2023/09/03 13:31:25;;;;;;;4.67;1.50;;;;;;;;;;5075958;28;20181;-77
2023/09/03 13:33:54;;;;;;;4.73;1.63;;;;;;;;;;5075566;28;20641;-75
2023/09/03 13:36:21;;;;;;;2.23;1.50;;;;;;;;;;5041854;28;20666;-78
2023/09/03 13:38:49;;;;;;;3.73;1.20;;;;;;;;;;5076708;28;20272;-77
2023/09/03 13:41:17;;;;;;;2.37;1.57;;;;;;;;;;5076674;28;20189;-77
2023/09/03 13:43:47;;;;;;;3.73;1.50;;;;;;;;;;5057658;28;20190;-76
2023/09/03 13:46:14;;;;;;;2.73;1.33;;;;;;;;;;5077773;28;20189;-78
2023/09/03 13:48:42;;;;;;;2.77;1.30;;;;;;;;;;5059663;28;20220;-77
2023/09/03 13:51:11;;;;;;;3.73;1.40;;;;;;;;;;5059765;28;20190;-77
2023/09/03 13:53:39;;;;;;;3.37;1.30;;;;;;;;;;5043479;28;20192;-78
2023/09/03 13:56:07;;;;;;;1.77;1.00;;;;;;;;;;5058910;28;20252;-77
2023/09/03 13:58:34;;;;;;;5.17;1.40;;;;;;;;;;5058842;28;20185;-77
2023/09/03 14:01:08;;;;;;;3.30;1.20;;;;;;;;;;5043664;28;20174;-77
2023/09/03 14:03:52;;;;;;;4.80;2.00;;;;;;;;;;5077820;28;20250;-77
2023/09/03 14:06:19;;;;;;;4.50;1.20;;;;;;;;;;5060490;28;20197;-76
2023/09/03 14:08:46;;;;;;;2.67;1.23;;;;;;;;;;5042597;28;20517;-77
2023/09/03 14:11:14;;;;;;;1.80;1.20;;;;;;;;;;5075355;28;20236;-77
2023/09/03 14:13:43;;;;;;;3.83;1.40;;;;;;;;;;5075729;28;20181;-74
2023/09/03 14:16:13;;;;;;;4.20;1.57;;;;;;;;;;5058811;28;20498;-79
2023/09/03 14:22:42;;;;;;;3.53;1.60;;;;;;;;;;5074661;28;20149;-73
2023/09/03 14:29:10;;;;;;;3.40;1.87;;;;;;;;;;5074269;28;20277;-74
2023/09/03 14:31:39;;;;;;;3.33;1.60;;;;;;;;;;5040002;28;20248;-73
2023/09/03 14:34:06;;;;;;;4.30;1.67;;;;;;;;;;5074123;28;20298;-73
2023/09/03 14:36:33;;;;;;;2.83;1.50;;;;;;;;;;5039644;28;20198;-73
2023/09/03 14:43:00;;;;;;;3.60;1.37;;;;;;;;;;5073483;28;20173;-73
2023/09/03 14:45:27;;;;;;;3.93;1.40;;;;;;;;;;5055624;28;20578;-73
2023/09/03 14:48:11;;;;;;;3.00;1.17;;;;;;;;;;5041886;28;20617;-73
2023/09/03 14:50:41;;;;;;;5.53;1.80;;;;;;;;;;5073574;28;20247;-72
2023/09/03 14:53:08;;;;;;;5.00;2.10;;;;;;;;;;5073143;28;20185;-73
2023/09/03 14:55:42;;;;;;;5.43;1.90;;;;;;;;;;5055686;28;20182;-73
2023/09/03 14:58:13;;;;;;;3.10;1.77;;;;;;;;;;5041800;28;20223;-77
2023/09/03 15:00:43;;;;;;;4.23;1.90;;;;;;;;;;5041334;28;20192;-78
2023/09/03 15:03:11;;;;;;;5.33;1.97;;;;;;;;;;5074386;28;20209;-78
2023/09/03 15:05:40;;;;;;;3.07;1.80;;;;;;;;;;5074579;28;20236;-75
2023/09/03 15:08:06;;;;;;;7.20;2.20;;;;;;;;;;5055854;28;20244;-75
2023/09/03 15:10:33;;;;;;;4.27;1.70;;;;;;;;;;5077399;28;20263;-75
2023/09/03 15:13:02;;;;;;;3.87;1.43;;;;;;;;;;5060996;28;20186;-77
2023/09/03 15:15:32;;;;;;;4.07;1.80;;;;;;;;;;5029468;28;20191;-77
2023/09/03 15:21:53;;;;;;;5.53;1.80;;;;;;;;;;5078249;28;20214;-77
2023/09/03 18:10:55;;;;;;;5.93;2.53;;;;;;;;;;5052896;28;20276;-74
2023/09/03 18:13:22;;;;;;;6.40;2.83;;;;;;;;;;5035635;28;20289;-73
2023/09/03 18:16:08;;;;;;;6.90;2.80;;;;;;;;;;5053603;28;20198;-73
2023/09/03 18:22:34;;;;;;;4.83;2.33;;;;;;;;;;5053679;28;20664;-73
2023/09/03 18:29:02;;;;;;;6.73;2.47;;;;;;;;;;5053172;28;20514;-74
2023/09/03 18:35:29;;;;;;;12.03;3.60;;;;;;;;;;5053431;28;20185;-75
2023/09/03 18:37:59;;;;;;;7.27;3.60;;;;;;;;;;5052994;28;20190;-70
2023/09/03 18:44:29;;;;;;;11.33;3.47;;;;;;;;;;5055424;28;20153;-72
2023/09/03 18:55:05;;;;;;;11.30;2.90;;;;;;;;;;5077041;28;20252;-73
2023/09/03 18:57:32;;;;;;;6.80;3.00;;;;;;;;;;5042646;28;20575;-73
2023/09/03 19:03:52;;;;;;;6.47;3.30;;;;;;;;;;5071345;28;20571;-73
2023/09/03 19:10:19;;;;;;;4.47;2.60;;;;;;;;;;5076676;28;20717;-71
2023/09/03 19:12:46;;;;;;;5.87;2.67;;;;;;;;;;5068353;28;20670;-72
2023/09/03 19:15:13;;;;;;;7.20;2.50;;;;;;;;;;5076195;28;20181;-72
2023/09/03 19:21:41;;;;;;;5.90;2.60;;;;;;;;;;5056493;28;20150;-72
2023/09/03 19:28:07;;;;;;;8.00;3.07;;;;;;;;;;5056303;28;20254;-73
2023/09/03 19:30:34;;;;;;;5.87;2.70;;;;;;;;;;5055567;28;20203;-73
2023/09/03 19:33:19;;;;;;;7.07;2.77;;;;;;;;;;5055816;28;20151;-73
2023/09/03 19:35:56;;;;;;;7.30;2.77;;;;;;;;;;5038316;28;20186;-72
2023/09/03 19:38:24;;;;;;;5.97;2.90;;;;;;;;;;5038466;28;20252;-73
2023/09/03 19:40:51;;;;;;;7.10;2.80;;;;;;;;;;5056122;28;20221;-73
2023/09/03 19:43:22;;;;;;;6.23;2.73;;;;;;;;;;5069645;28;20190;-72
2023/09/03 19:50:07;;;;;;;6.90;2.50;;;;;;;;;;5075867;28;20307;-72
2023/09/03 19:56:27;;;;;;;8.27;2.80;;;;;;;;;;5074905;28;20690;-72
2023/09/03 19:58:57;;;;;;;6.00;2.63;;;;;;;;;;5076677;28;20170;-72
2023/09/03 20:01:24;;;;;;;4.87;2.63;;;;;;;;;;5075565;28;20190;-73
2023/09/03 20:03:52;;;;;;;5.83;2.90;;;;;;;;;;5057955;28;20278;-72
2023/09/03 20:06:19;;;;;;;7.33;2.73;;;;;;;;;;5075830;28;20178;-72
2023/09/03 20:08:46;;;;;;;5.80;3.10;;;;;;;;;;5076052;28;20688;-72
2023/09/03 20:11:15;;;;;;;5.77;3.10;;;;;;;;;;5076412;28;20233;-72
2023/09/03 20:13:43;;;;;;;8.00;2.70;;;;;;;;;;5057689;28;20574;-72
2023/09/03 20:16:10;;;;;;;8.43;2.63;;;;;;;;;;5075561;28;20628;-72
2023/09/03 20:18:37;;;;;;;7.23;2.90;;;;;;;;;;5057706;28;20198;-72
2023/09/03 20:21:04;;;;;;;6.97;2.60;;;;;;;;;;5057678;28;20277;-72
2023/09/03 20:27:30;;;;;;;4.77;2.67;;;;;;;;;;5075281;28;20198;-71
2023/09/03 20:29:57;;;;;;;4.80;2.60;;;;;;;;;;5076152;28;20198;-71
2023/09/03 20:32:42;;;;;;;7.90;2.87;;;;;;;;;;5060277;28;20489;-72
2023/09/03 20:35:09;;;;;;;10.07;3.20;;;;;;;;;;5057309;28;20273;-72
2023/09/03 20:37:40;;;;;;;7.97;2.70;;;;;;;;;;5074115;28;20236;-72
2023/09/03 20:40:08;;;;;;;5.70;3.00;;;;;;;;;;5057429;28;20194;-72
2023/09/03 20:42:34;;;;;;;6.37;3.07;;;;;;;;;;5056551;28;20708;-72
2023/09/03 20:49:03;;;;;;;6.57;2.90;;;;;;;;;;5074964;28;20237;-71
2023/09/03 20:51:30;;;;;;;7.67;3.63;;;;;;;;;;5074670;28;20194;-72
2023/09/03 20:53:57;;;;;;;4.80;2.80;;;;;;;;;;5056870;28;20702;-71
2023/09/03 20:56:24;;;;;;;5.73;2.93;;;;;;;;;;5074566;28;20664;-72
2023/09/03 20:58:50;;;;;;;7.13;3.40;;;;;;;;;;5057028;28;20692;-72
2023/09/03 21:05:16;;;;;;;7.47;3.30;;;;;;;;;;5075038;28;20153;-72
2023/09/03 21:07:43;;;;;;;5.37;2.80;;;;;;;;;;5056449;28;20534;-72
2023/09/03 21:10:10;;;;;;;5.33;2.70;;;;;;;;;;5056387;28;20261;-72
2023/09/03 21:12:37;;;;;;;5.67;2.70;;;;;;;;;;5074859;28;20241;-72
2023/09/03 21:15:04;;;;;;;8.73;2.80;;;;;;;;;;5073227;28;20674;-72
2023/09/03 21:17:35;;;;;;;8.77;3.37;;;;;;;;;;5074133;28;20201;-71
2023/09/03 21:20:04;;;;;;;8.10;3.13;;;;;;;;;;5037970;28;20660;-72
2023/09/03 21:22:32;;;;;;;6.07;2.93;;;;;;;;;;5056655;28;20225;-72
2023/09/03 21:25:01;;;;;;;6.37;2.80;;;;;;;;;;5073118;28;20185;-71
2023/09/03 21:27:28;;;;;;;5.50;2.90;;;;;;;;;;5056513;28;20194;-71
2023/09/03 21:29:55;;;;;;;6.47;2.73;;;;;;;;;;5056512;28;20289;-71
2023/09/03 21:36:21;;;;;;;5.93;2.90;;;;;;;;;;5074230;28;20184;-72
2023/09/03 21:42:49;;;;;;;4.60;2.87;;;;;;;;;;5073981;28;20153;-72
2023/09/03 21:45:16;;;;;;;7.63;3.00;;;;;;;;;;5073738;28;20177;-73
2023/09/03 21:47:43;;;;;;;6.23;3.30;;;;;;;;;;5074307;28;20585;-72
2023/09/03 21:50:10;;;;;;;7.87;3.93;;;;;;;;;;5056556;28;20198;-72
2023/09/03 21:52:37;;;;;;;9.07;4.00;;;;;;;;;;5054604;28;20190;-73
2023/09/03 21:59:03;;;;;;;9.43;4.20;;;;;;;;;;5069977;28;20225;-73
2023/09/03 22:01:31;;;;;;;7.80;3.60;;;;;;;;;;5072600;28;20204;-73
2023/09/03 22:03:58;;;;;;;5.67;3.40;;;;;;;;;;5056830;28;20269;-73
2023/09/03 22:06:25;;;;;;;6.83;3.60;;;;;;;;;;5074092;28;20288;-73
2023/09/03 22:08:51;;;;;;;6.00;3.60;;;;;;;;;;5039787;28;20272;-72
2023/09/03 22:11:18;;;;;;;7.03;3.80;;;;;;;;;;5074273;28;20222;-73
2023/09/03 22:13:45;;;;;;;6.57;3.87;;;;;;;;;;5039272;28;20197;-73
2023/09/03 22:16:29;;;;;;;6.83;3.67;;;;;;;;;;5058461;28;20177;-73
2023/09/03 22:18:56;;;;;;;8.03;3.83;;;;;;;;;;5057540;28;20276;-72
2023/09/03 22:21:40;;;;;;;6.53;3.73;;;;;;;;;;5062530;28;20241;-73
2023/09/03 22:24:06;;;;;;;6.77;3.50;;;;;;;;;;5060311;28;20273;-73
2023/09/03 22:26:33;;;;;;;9.07;4.50;;;;;;;;;;5077334;28;20625;-73
2023/09/03 22:29:00;;;;;;;6.47;3.97;;;;;;;;;;5076794;28;20189;-73
2023/09/03 22:31:27;;;;;;;6.33;3.60;;;;;;;;;;5059893;28;20611;-73
2023/09/03 22:37:47;;;;;;;7.73;3.87;;;;;;;;;;5077350;28;20220;-73
2023/09/03 22:40:14;;;;;;;9.73;3.90;;;;;;;;;;5078016;28;20228;-72
2023/09/03 22:42:40;;;;;;;7.07;3.10;;;;;;;;;;5060006;28;20186;-73
2023/09/03 22:45:07;;;;;;;6.30;3.57;;;;;;;;;;5077997;28;20186;-72
2023/09/03 22:47:34;;;;;;;6.03;3.77;;;;;;;;;;5060218;28;20214;-72
2023/09/03 22:50:01;;;;;;;6.40;4.07;;;;;;;;;;5060354;28;20541;-73